Terminal Aerodrome Forecast
Issued by NWS Shreveport, LA

Home | Current Version | Previous Version | Text Only | Print | Product List | Glossary On
Versions: 1 2 3 4 5 6 7 8 9 10 11 12 13
189
FTUS44 KSHV 110540
TAFMLU
TAF
KMLU 110540Z 1106/1206 21007KT P6SM SKC
     FM111800 26009KT P6SM FEW300
     FM112100 30008KT P6SM SCT250
     FM120000 02006KT P6SM FEW250=

USA.gov is the U.S. government's official web portal to all federal, state and local government web resources and services.